createdAt,value
2019-06-10T00:00:22.043Z,0.00
2019-06-10T00:01:21.989Z,0.00
2019-06-10T00:02:21.938Z,0.00
2019-06-10T00:03:21.804Z,0.00
2019-06-10T00:04:22.311Z,0.00
2019-06-10T00:05:21.761Z,0.00
2019-06-10T00:06:21.567Z,0.00
2019-06-10T00:07:21.475Z,0.00
2019-06-10T00:08:21.462Z,0.00
2019-06-10T00:09:21.320Z,0.00
2019-06-10T00:10:21.500Z,0.00
2019-06-10T00:11:24.586Z,0.00
2019-06-10T00:12:21.101Z,0.00
2019-06-10T00:13:21.087Z,0.00
2019-06-10T00:14:21.353Z,0.00
2019-06-10T00:15:21.357Z,0.00
2019-06-10T00:16:20.985Z,0.00
2019-06-10T00:17:21.370Z,0.00
2019-06-10T00:18:36.522Z,0.00
2019-06-10T00:19:21.755Z,0.00
2019-06-10T00:20:21.585Z,0.00
2019-06-10T00:21:21.763Z,0.00
2019-06-10T00:22:21.583Z,0.00
2019-06-10T00:23:21.293Z,0.00
2019-06-10T00:24:21.092Z,0.00
2019-06-10T00:25:21.017Z,0.00
2019-06-10T00:26:21.647Z,0.00
2019-06-10T00:27:21.592Z,0.00
2019-06-10T00:28:21.732Z,0.00
2019-06-10T00:29:21.977Z,0.00
2019-06-10T00:30:20.870Z,0.00
2019-06-10T00:31:20.758Z,0.00
2019-06-10T00:32:21.478Z,0.00
2019-06-10T00:33:21.453Z,0.00
2019-06-10T00:34:20.924Z,0.00
2019-06-10T00:35:21.122Z,0.00
2019-06-10T00:36:21.551Z,0.00
2019-06-10T00:37:21.180Z,0.00
2019-06-10T00:38:21.235Z,0.00
2019-06-10T00:39:18.908Z,0.00
2019-06-10T00:40:21.321Z,0.00
2019-06-10T00:41:18.760Z,0.00
2019-06-10T00:42:21.170Z,0.00
2019-06-10T00:43:18.579Z,0.00
2019-06-10T00:44:20.607Z,0.00
2019-06-10T00:45:21.416Z,0.00
2019-06-10T00:46:18.355Z,0.00
2019-06-10T00:47:18.263Z,0.00
2019-06-10T00:48:26.209Z,0.00
2019-06-10T00:49:18.094Z,0.00
2019-06-10T00:50:18.010Z,0.00
2019-06-10T00:51:18.018Z,0.00
2019-06-10T00:52:17.854Z,0.00
2019-06-10T00:53:17.885Z,0.00
2019-06-10T00:54:17.699Z,0.00
2019-06-10T00:55:17.614Z,0.00
2019-06-10T00:56:17.639Z,0.00
2019-06-10T00:57:17.454Z,0.00
2019-06-10T00:58:17.365Z,0.00
2019-06-10T00:59:17.314Z,0.00
2019-06-10T01:00:25.337Z,0.00
2019-06-10T01:01:17.141Z,0.00
2019-06-10T01:02:17.127Z,0.00
2019-06-10T01:03:16.970Z,0.00
2019-06-10T01:04:16.911Z,0.00
2019-06-10T01:05:16.841Z,0.00
2019-06-10T01:06:16.734Z,0.00
2019-06-10T01:07:17.673Z,0.00
2019-06-10T01:08:16.568Z,0.00
2019-06-10T01:09:16.482Z,0.00
2019-06-10T01:10:16.465Z,0.00
2019-06-10T01:11:21.529Z,0.00
2019-06-10T01:12:16.247Z,0.00
2019-06-10T01:13:16.182Z,0.00
2019-06-10T01:14:16.472Z,0.00
2019-06-10T01:15:15.996Z,0.00
2019-06-10T01:16:16.042Z,0.00
2019-06-10T01:17:15.845Z,0.00
2019-06-10T01:18:31.786Z,0.00
2019-06-10T01:19:15.975Z,0.00
2019-06-10T01:20:16.099Z,0.00
2019-06-10T01:21:15.644Z,0.00
2019-06-10T01:22:15.982Z,0.00
2019-06-10T01:23:15.759Z,0.00
2019-06-10T01:24:15.334Z,0.00
2019-06-10T01:25:15.195Z,0.00
2019-06-10T01:26:16.417Z,0.00
2019-06-10T01:27:15.179Z,0.00
2019-06-10T01:28:16.882Z,0.00
2019-06-10T01:29:15.591Z,0.00
2019-06-10T01:30:20.558Z,0.00
2019-06-10T01:31:19.155Z,0.00
2019-06-10T01:32:15.033Z,0.00
2019-06-10T01:33:16.051Z,0.00
2019-06-10T01:34:15.163Z,0.00
2019-06-10T01:35:15.731Z,0.00
2019-06-10T01:36:16.458Z,0.00
2019-06-10T01:37:14.819Z,0.00
2019-06-10T01:38:16.334Z,0.00
2019-06-10T01:39:15.167Z,0.00
2019-06-10T01:40:16.355Z,0.00
2019-06-10T01:41:15.239Z,0.00
2019-06-10T01:42:14.424Z,0.00
2019-06-10T01:43:16.771Z,0.00
2019-06-10T01:44:14.705Z,0.00
2019-06-10T01:45:14.641Z,0.00
2019-06-10T01:46:14.699Z,0.00
2019-06-10T01:47:14.642Z,0.00
2019-06-10T01:48:14.930Z,0.00
2019-06-10T01:49:14.851Z,0.00
2019-06-10T01:50:15.962Z,0.00
2019-06-10T01:51:14.553Z,0.00
2019-06-10T01:52:14.831Z,0.00
2019-06-10T01:53:15.661Z,0.00
2019-06-10T01:54:15.120Z,0.00
2019-06-10T01:55:14.966Z,0.00
2019-06-10T01:56:15.438Z,0.00
2019-06-10T01:57:14.216Z,0.00
2019-06-10T01:58:15.922Z,0.00
2019-06-10T01:59:13.798Z,0.00
2019-06-10T02:00:17.178Z,0.00
2019-06-10T02:01:15.627Z,0.00
2019-06-10T02:02:15.723Z,0.00
2019-06-10T02:03:16.288Z,0.00
2019-06-10T02:04:15.836Z,0.00
2019-06-10T02:05:14.575Z,0.00
2019-06-10T02:06:16.046Z,0.00
2019-06-10T02:07:13.914Z,0.00
2019-06-10T02:08:13.361Z,0.00
2019-06-10T02:09:13.903Z,0.00
2019-06-10T02:10:15.168Z,0.00
2019-06-10T02:11:14.043Z,0.00
2019-06-10T02:12:12.807Z,0.00
2019-06-10T02:13:12.130Z,0.00
2019-06-10T02:14:14.395Z,0.00
2019-06-10T02:15:13.477Z,0.00
2019-06-10T02:16:14.079Z,0.00
2019-06-10T02:17:13.086Z,0.00
2019-06-10T02:18:13.319Z,0.00
2019-06-10T02:19:12.967Z,0.00
2019-06-10T02:20:13.894Z,0.00
2019-06-10T02:21:18.308Z,0.00
2019-06-10T02:22:13.060Z,0.00
2019-06-10T02:23:12.398Z,0.00
2019-06-10T02:24:12.765Z,0.00
2019-06-10T02:25:11.079Z,0.00
2019-06-10T02:26:11.851Z,0.00
2019-06-10T02:27:12.875Z,0.00
2019-06-10T02:28:13.051Z,0.00
2019-06-10T02:29:11.598Z,0.00
2019-06-10T02:30:18.888Z,0.00
2019-06-10T02:31:14.274Z,0.00
2019-06-10T02:32:14.560Z,0.00
2019-06-10T02:33:12.747Z,0.00
2019-06-10T02:34:13.274Z,0.00
2019-06-10T02:35:15.409Z,0.00
2019-06-10T02:36:09.476Z,0.00
2019-06-10T02:37:09.421Z,0.00
2019-06-10T02:38:09.315Z,0.00
2019-06-10T02:39:09.302Z,0.00
2019-06-10T02:40:09.166Z,0.00
2019-06-10T02:41:09.114Z,0.00
2019-06-10T02:42:09.012Z,0.00
2019-06-10T02:43:08.920Z,0.00
2019-06-10T02:44:08.841Z,0.00
2019-06-10T02:45:08.831Z,0.00
2019-06-10T02:46:08.678Z,0.00
2019-06-10T02:47:08.669Z,0.00
2019-06-10T02:48:08.516Z,0.00
2019-06-10T02:49:28.359Z,0.00
2019-06-10T02:50:09.377Z,0.00
2019-06-10T02:51:08.369Z,0.00
2019-06-10T02:52:08.190Z,0.00
2019-06-10T02:53:08.209Z,0.00
2019-06-10T02:54:08.036Z,0.00
2019-06-10T02:55:07.942Z,0.00
2019-06-10T02:56:07.888Z,0.00
2019-06-10T02:57:07.789Z,0.00
2019-06-10T02:58:07.719Z,0.00
2019-06-10T02:59:07.705Z,0.00
2019-06-10T03:00:19.353Z,0.00
2019-06-10T03:01:07.526Z,0.00
2019-06-10T03:02:07.373Z,0.00
2019-06-10T03:03:07.351Z,0.00
2019-06-10T03:04:07.213Z,0.00
2019-06-10T03:05:08.156Z,0.00
2019-06-10T03:06:08.956Z,0.00
2019-06-10T03:07:15.884Z,5.63
2019-06-10T03:08:14.075Z,5.63
2019-06-10T03:09:06.851Z,5.63
2019-06-10T03:10:06.728Z,5.63
2019-06-10T03:11:06.762Z,5.63
2019-06-10T03:12:06.568Z,5.63
2019-06-10T03:13:06.600Z,5.63
2019-06-10T03:14:06.416Z,5.63
2019-06-10T03:15:06.375Z,5.63
2019-06-10T03:16:06.246Z,5.63
2019-06-10T03:17:06.190Z,5.63
2019-06-10T03:18:06.098Z,5.63
2019-06-10T03:19:06.098Z,5.63
2019-06-10T03:20:05.926Z,5.63
2019-06-10T03:21:05.906Z,5.63
2019-06-10T03:22:13.665Z,5.63
2019-06-10T03:23:12.829Z,11.25
2019-06-10T03:24:05.614Z,11.25
2019-06-10T03:25:05.520Z,11.25
2019-06-10T03:26:05.445Z,11.25
2019-06-10T03:27:05.434Z,11.25
2019-06-10T03:28:05.294Z,11.25
2019-06-10T03:29:05.196Z,11.25
2019-06-10T03:30:15.754Z,11.25
2019-06-10T03:31:06.300Z,11.25
2019-06-10T03:32:05.704Z,11.25
2019-06-10T03:33:05.294Z,16.88
2019-06-10T03:34:05.411Z,16.88
2019-06-10T03:35:05.693Z,22.50
2019-06-10T03:36:04.638Z,22.50
2019-06-10T03:37:04.583Z,28.13
2019-06-10T03:38:04.485Z,33.75
2019-06-10T03:39:04.397Z,33.75
2019-06-10T03:40:04.402Z,39.38
2019-06-10T03:41:04.234Z,45.00
2019-06-10T03:42:04.211Z,50.63
2019-06-10T03:43:04.082Z,56.25
2019-06-10T03:44:04.023Z,61.88
2019-06-10T03:45:03.909Z,61.88
2019-06-10T03:46:03.930Z,61.88
2019-06-10T03:47:03.744Z,61.88
2019-06-10T03:48:05.736Z,56.25
2019-06-10T03:49:03.583Z,56.25
2019-06-10T03:50:03.552Z,50.63
2019-06-10T03:51:03.618Z,50.63
2019-06-10T03:52:03.353Z,45.00
2019-06-10T03:53:04.365Z,50.63
2019-06-10T03:54:03.196Z,50.63
2019-06-10T03:55:03.291Z,50.63
2019-06-10T03:56:03.075Z,50.63
2019-06-10T03:57:02.975Z,50.63
2019-06-10T03:58:02.926Z,50.63
2019-06-10T03:59:02.974Z,56.25
2019-06-10T04:00:27.197Z,56.25
2019-06-10T04:01:03.365Z,61.88
2019-06-10T04:02:02.543Z,67.50
2019-06-10T04:03:02.802Z,73.13
2019-06-10T04:04:02.501Z,78.75
2019-06-10T04:05:02.843Z,90.00
2019-06-10T04:06:02.718Z,95.63
2019-06-10T04:07:03.798Z,106.88
2019-06-10T04:08:02.256Z,112.50
2019-06-10T04:09:02.783Z,118.13
2019-06-10T04:10:02.359Z,118.13
2019-06-10T04:11:03.000Z,112.50
2019-06-10T04:12:08.825Z,106.88
2019-06-10T04:13:02.632Z,101.25
2019-06-10T04:14:02.355Z,101.25
2019-06-10T04:15:03.142Z,106.88
2019-06-10T04:16:02.329Z,112.50
2019-06-10T04:17:02.754Z,118.13
2019-06-10T04:18:03.644Z,123.75
2019-06-10T04:19:02.555Z,123.75
2019-06-10T04:20:09.341Z,129.38
2019-06-10T04:21:02.278Z,129.38
2019-06-10T04:22:02.562Z,129.38
2019-06-10T04:23:08.740Z,123.75
2019-06-10T04:24:02.275Z,118.13
2019-06-10T04:25:02.969Z,112.50
2019-06-10T04:26:02.299Z,106.88
2019-06-10T04:27:02.634Z,95.63
2019-06-10T04:28:00.452Z,95.63
2019-06-10T04:29:02.466Z,90.00
2019-06-10T04:30:00.285Z,84.38
2019-06-10T04:31:02.056Z,84.38
2019-06-10T04:32:00.152Z,78.75
2019-06-10T04:33:02.170Z,78.75
2019-06-10T04:33:59.980Z,73.13
2019-06-10T04:35:02.096Z,73.13
2019-06-10T04:35:59.808Z,73.13
2019-06-10T04:36:59.777Z,78.75
2019-06-10T04:37:59.637Z,84.38
2019-06-10T04:38:59.625Z,84.38
2019-06-10T04:39:59.483Z,84.38
2019-06-10T04:40:59.399Z,84.38
2019-06-10T04:42:02.320Z,78.75
2019-06-10T04:42:59.244Z,78.75
2019-06-10T04:43:59.181Z,84.38
2019-06-10T04:44:59.116Z,90.00
2019-06-10T04:45:58.997Z,101.25
2019-06-10T04:46:58.921Z,112.50
2019-06-10T04:48:02.898Z,123.75
2019-06-10T04:48:58.777Z,140.63
2019-06-10T04:49:58.682Z,151.88
2019-06-10T04:50:58.644Z,163.13
2019-06-10T04:51:58.521Z,168.75
2019-06-10T04:52:58.454Z,174.38
2019-06-10T04:53:58.379Z,185.63
2019-06-10T04:54:58.369Z,191.25
2019-06-10T04:55:58.193Z,202.50
2019-06-10T04:56:58.117Z,208.13
2019-06-10T04:57:58.080Z,219.38
2019-06-10T04:58:57.978Z,225.00
2019-06-10T04:59:57.878Z,225.00
2019-06-10T05:00:58.817Z,230.63
2019-06-10T05:01:57.715Z,230.63
2019-06-10T05:02:57.630Z,236.25
2019-06-10T05:03:57.643Z,236.25
2019-06-10T05:04:57.479Z,241.88
2019-06-10T05:05:57.393Z,247.50
2019-06-10T05:06:58.350Z,253.13
2019-06-10T05:07:57.236Z,270.00
2019-06-10T05:08:57.179Z,281.25
2019-06-10T05:09:57.143Z,292.50
2019-06-10T05:10:56.988Z,309.38
2019-06-10T05:11:56.911Z,315.00
2019-06-10T05:12:56.855Z,320.63
2019-06-10T05:13:56.762Z,326.25
2019-06-10T05:14:56.668Z,331.88
2019-06-10T05:15:56.675Z,331.88
2019-06-10T05:16:56.522Z,343.13
2019-06-10T05:17:56.481Z,348.75
2019-06-10T05:18:56.368Z,348.75
2019-06-10T05:19:56.287Z,348.75
2019-06-10T05:20:58.646Z,354.38
2019-06-10T05:21:56.200Z,365.63
2019-06-10T05:22:56.060Z,371.25
2019-06-10T05:23:56.051Z,388.13
2019-06-10T05:24:56.268Z,382.50
2019-06-10T05:25:56.326Z,388.13
2019-06-10T05:26:55.834Z,393.75
2019-06-10T05:27:55.640Z,393.75
2019-06-10T05:28:55.564Z,399.38
2019-06-10T05:29:55.539Z,393.75
2019-06-10T05:30:55.397Z,371.25
2019-06-10T05:31:55.309Z,365.63
2019-06-10T05:32:55.250Z,382.50
2019-06-10T05:33:55.164Z,405.00
2019-06-10T05:34:55.162Z,427.50
2019-06-10T05:35:54.992Z,438.75
2019-06-10T05:36:54.913Z,427.50
2019-06-10T05:37:54.875Z,421.88
2019-06-10T05:38:54.768Z,444.38
2019-06-10T05:39:54.674Z,483.75
2019-06-10T05:40:54.691Z,534.38
2019-06-10T05:41:54.507Z,568.13
2019-06-10T05:42:54.432Z,568.13
2019-06-10T05:43:56.380Z,534.38
2019-06-10T05:44:54.263Z,466.88
2019-06-10T05:45:54.185Z,371.25
2019-06-10T05:46:54.222Z,292.50
2019-06-10T05:47:54.028Z,281.25
2019-06-10T05:48:54.065Z,343.13
2019-06-10T05:49:53.867Z,399.38
2019-06-10T05:51:02.724Z,421.88
2019-06-10T05:51:53.741Z,421.88
2019-06-10T05:52:53.636Z,438.75
2019-06-10T05:53:53.735Z,466.88
2019-06-10T05:54:53.564Z,500.63
2019-06-10T05:55:53.388Z,528.75
2019-06-10T05:56:53.315Z,562.50
2019-06-10T05:57:53.346Z,573.75
2019-06-10T05:58:53.155Z,596.25
2019-06-10T05:59:53.123Z,601.88
2019-06-10T06:00:53.217Z,585.00
2019-06-10T06:01:53.873Z,556.88
2019-06-10T06:02:52.834Z,528.75
2019-06-10T06:03:53.120Z,483.75
2019-06-10T06:04:53.153Z,433.13
2019-06-10T06:05:52.629Z,388.13
2019-06-10T06:06:53.111Z,360.00
2019-06-10T06:08:02.250Z,348.75
2019-06-10T06:08:53.361Z,354.38
2019-06-10T06:09:53.288Z,360.00
2019-06-10T06:10:52.780Z,376.88
2019-06-10T06:11:52.456Z,393.75
2019-06-10T06:12:52.683Z,438.75
2019-06-10T06:13:52.374Z,506.25
2019-06-10T06:14:52.733Z,585.00
2019-06-10T06:15:52.804Z,652.50
2019-06-10T06:16:53.396Z,652.50
2019-06-10T06:18:06.151Z,590.63
2019-06-10T06:18:52.628Z,551.25
2019-06-10T06:19:53.483Z,579.38
2019-06-10T06:20:52.591Z,624.38
2019-06-10T06:21:53.013Z,663.75
2019-06-10T06:22:52.255Z,686.25
2019-06-10T06:23:52.797Z,736.88
2019-06-10T06:24:52.277Z,832.50
2019-06-10T06:25:53.143Z,905.63
2019-06-10T06:26:53.290Z,945.00
2019-06-10T06:27:52.466Z,939.38
2019-06-10T06:28:53.298Z,956.25
2019-06-10T06:29:52.445Z,978.75
2019-06-10T06:30:52.690Z,1001.25
2019-06-10T06:31:52.318Z,1006.88
2019-06-10T06:32:52.824Z,1012.50
2019-06-10T06:33:52.722Z,1018.13
2019-06-10T06:34:52.510Z,1029.38
2019-06-10T06:35:52.381Z,1029.38
2019-06-10T06:36:52.686Z,1023.75
2019-06-10T06:37:50.051Z,1018.13
2019-06-10T06:38:50.076Z,1006.88
2019-06-10T06:39:52.189Z,995.63
2019-06-10T06:40:53.548Z,961.88
2019-06-10T06:41:49.728Z,922.50
2019-06-10T06:42:52.427Z,866.25
2019-06-10T06:43:49.577Z,776.25
2019-06-10T06:44:49.511Z,697.50
2019-06-10T06:45:56.368Z,646.88
2019-06-10T06:46:49.334Z,601.88
2019-06-10T06:47:49.322Z,601.88
2019-06-10T06:48:49.181Z,630.00
2019-06-10T06:49:49.162Z,663.75
2019-06-10T06:51:01.807Z,691.88
2019-06-10T06:51:55.302Z,680.63
2019-06-10T06:53:16.895Z,669.38
2019-06-10T06:53:52.968Z,663.75
2019-06-10T06:54:48.786Z,669.38
2019-06-10T06:55:48.630Z,658.13
2019-06-10T06:56:48.547Z,646.88
2019-06-10T06:57:48.565Z,635.63
2019-06-10T06:58:48.404Z,618.75
2019-06-10T06:59:48.323Z,641.25
2019-06-10T07:01:00.567Z,708.75
2019-06-10T07:01:48.153Z,793.13
2019-06-10T07:02:48.078Z,793.13
2019-06-10T07:03:48.011Z,765.00
2019-06-10T07:04:47.930Z,725.63
2019-06-10T07:05:47.841Z,714.38
2019-06-10T07:06:47.811Z,708.75
2019-06-10T07:07:47.679Z,675.00
2019-06-10T07:09:00.549Z,607.50
2019-06-10T07:09:47.556Z,596.25
2019-06-10T07:10:47.441Z,573.75
2019-06-10T07:11:47.359Z,551.25
2019-06-10T07:12:47.339Z,534.38
2019-06-10T07:13:47.219Z,556.88
2019-06-10T07:14:47.138Z,630.00
2019-06-10T07:15:47.601Z,697.50
2019-06-10T07:16:46.965Z,736.88
2019-06-10T07:17:46.921Z,787.50
2019-06-10T07:18:50.282Z,826.88
2019-06-10T07:19:46.749Z,866.25
2019-06-10T07:20:46.682Z,905.63
2019-06-10T07:22:05.322Z,961.88
2019-06-10T07:22:46.879Z,1035.00
2019-06-10T07:23:47.140Z,1091.25
2019-06-10T07:24:47.750Z,1130.63
2019-06-10T07:25:47.492Z,1175.63
2019-06-10T07:26:53.985Z,1220.63
2019-06-10T07:27:46.990Z,1293.75
2019-06-10T07:28:47.457Z,1265.63
2019-06-10T07:29:47.289Z,1271.25
2019-06-10T07:30:52.815Z,1417.50
2019-06-10T07:31:49.983Z,1378.13
2019-06-10T07:32:47.516Z,1400.63
2019-06-10T07:33:47.320Z,1338.75
2019-06-10T07:34:46.973Z,1203.75
2019-06-10T07:35:45.538Z,1102.50
2019-06-10T07:36:45.615Z,1040.63
2019-06-10T07:37:46.041Z,1046.25
2019-06-10T07:38:48.808Z,1051.88
2019-06-10T07:39:45.448Z,1046.25
2019-06-10T07:40:45.832Z,1035.00
2019-06-10T07:41:47.768Z,1068.75
2019-06-10T07:42:45.395Z,1136.25
2019-06-10T07:43:49.430Z,1158.75
2019-06-10T07:44:45.320Z,1119.38
2019-06-10T07:45:47.823Z,1119.38
2019-06-10T07:46:45.719Z,1085.63
2019-06-10T07:47:45.704Z,1203.75
2019-06-10T07:48:47.817Z,1243.13
2019-06-10T07:49:45.642Z,1620.00
2019-06-10T07:50:45.824Z,1828.13
2019-06-10T07:51:46.322Z,2030.63
2019-06-10T07:52:46.531Z,1873.13
2019-06-10T07:53:46.560Z,2379.38
2019-06-10T07:54:45.243Z,2576.25
2019-06-10T07:55:46.451Z,2323.13
2019-06-10T07:56:49.801Z,1912.50
2019-06-10T07:57:45.569Z,2385.00
2019-06-10T07:58:47.447Z,1940.63
2019-06-10T07:59:45.752Z,1563.75
2019-06-10T08:00:47.791Z,1800.00
2019-06-10T08:01:50.883Z,1890.00
2019-06-10T08:02:45.917Z,1732.50
2019-06-10T08:03:46.387Z,1507.50
2019-06-10T08:04:45.854Z,1636.88
2019-06-10T08:05:45.064Z,1676.25
2019-06-10T08:06:45.727Z,1642.50
2019-06-10T08:07:44.104Z,1591.88
2019-06-10T08:08:45.289Z,1552.50
2019-06-10T08:09:44.289Z,1535.63
2019-06-10T08:10:45.978Z,1496.25
2019-06-10T08:11:46.719Z,1586.25
2019-06-10T08:12:44.802Z,1811.25
2019-06-10T08:13:45.897Z,2216.25
2019-06-10T08:14:44.281Z,2351.25
2019-06-10T08:15:44.678Z,2081.25
2019-06-10T08:16:46.014Z,1738.13
2019-06-10T08:17:43.020Z,1732.50
2019-06-10T08:19:14.007Z,1940.63
2019-06-10T08:19:48.691Z,1923.75
2019-06-10T08:20:43.832Z,1805.63
2019-06-10T08:21:45.945Z,1811.25
2019-06-10T08:22:50.796Z,2396.25
2019-06-10T08:23:45.052Z,1749.38
2019-06-10T08:24:43.613Z,2053.13
2019-06-10T08:25:46.826Z,1704.38
2019-06-10T08:26:43.666Z,1777.50
2019-06-10T08:27:45.466Z,2227.50
2019-06-10T08:28:42.487Z,2581.88
2019-06-10T08:29:45.443Z,2165.63
2019-06-10T08:30:42.995Z,2131.88
2019-06-10T08:31:44.467Z,2638.13
2019-06-10T08:32:45.277Z,3088.13
2019-06-10T08:33:44.421Z,2801.25
2019-06-10T08:34:44.709Z,3645.00
2019-06-10T08:35:49.406Z,3504.38
2019-06-10T08:36:45.021Z,3105.00
2019-06-10T08:37:42.775Z,2964.38
2019-06-10T08:38:43.465Z,2373.75
2019-06-10T08:39:42.801Z,2739.38
2019-06-10T08:40:43.635Z,2835.00
2019-06-10T08:41:45.575Z,2750.63
2019-06-10T08:42:41.409Z,2722.50
2019-06-10T08:43:41.346Z,2244.38
2019-06-10T08:44:43.487Z,2199.38
2019-06-10T08:45:43.327Z,2148.75
2019-06-10T08:46:40.950Z,2075.63
2019-06-10T08:47:41.825Z,1800.00
2019-06-10T08:48:41.785Z,2041.88
2019-06-10T08:49:42.494Z,2070.00
2019-06-10T08:50:41.266Z,2452.50
2019-06-10T08:51:39.875Z,2514.38
2019-06-10T08:53:01.468Z,2970.00
2019-06-10T08:53:42.536Z,3003.75
2019-06-10T08:54:41.285Z,2908.13
2019-06-10T08:55:39.689Z,2975.63
2019-06-10T08:56:40.087Z,3138.75
2019-06-10T08:57:40.758Z,3088.13
2019-06-10T08:58:40.888Z,2008.13
2019-06-10T08:59:40.059Z,3211.88
2019-06-10T09:00:40.429Z,2176.88
2019-06-10T09:01:41.822Z,2958.75
2019-06-10T09:02:39.745Z,2902.50
2019-06-10T09:03:40.158Z,3009.38
2019-06-10T09:04:40.542Z,2340.00
2019-06-10T09:05:40.762Z,2750.63
2019-06-10T09:06:40.237Z,2750.63
2019-06-10T09:07:39.677Z,2683.13
2019-06-10T09:08:39.952Z,2666.25
2019-06-10T09:09:39.276Z,2649.38
2019-06-10T09:10:39.673Z,2823.75
2019-06-10T09:11:40.541Z,2390.63
2019-06-10T09:12:38.478Z,2385.00
2019-06-10T09:13:48.031Z,2446.88
2019-06-10T09:14:48.187Z,2458.13
2019-06-10T09:15:39.133Z,2064.38
2019-06-10T09:16:47.654Z,1845.00
2019-06-10T09:17:39.678Z,1535.63
2019-06-10T09:18:39.475Z,1372.50
2019-06-10T09:19:38.593Z,1518.75
2019-06-10T09:20:39.322Z,1957.50
2019-06-10T09:21:39.172Z,2761.88
2019-06-10T09:22:39.800Z,2323.13
2019-06-10T09:23:38.998Z,2660.63
2019-06-10T09:24:37.571Z,2936.25
2019-06-10T09:25:37.504Z,2902.50
2019-06-10T09:26:37.450Z,2880.00
2019-06-10T09:27:37.365Z,2469.38
2019-06-10T09:28:37.301Z,2739.38
2019-06-10T09:29:37.223Z,2795.63
2019-06-10T09:30:37.165Z,2745.00
2019-06-10T09:31:37.100Z,2683.13
2019-06-10T09:32:37.016Z,2649.38
2019-06-10T09:33:36.974Z,2593.13
2019-06-10T09:34:36.885Z,2570.63
2019-06-10T09:35:36.817Z,2176.88
2019-06-10T09:36:36.766Z,2610.00
2019-06-10T09:37:36.676Z,2722.50
2019-06-10T09:38:36.612Z,2587.50
2019-06-10T09:39:36.553Z,2604.38
2019-06-10T09:40:36.479Z,2683.13
2019-06-10T09:41:41.175Z,2778.75
2019-06-10T09:42:36.348Z,2823.75
2019-06-10T09:43:36.275Z,2868.75
2019-06-10T09:44:36.207Z,2463.75
2019-06-10T09:45:36.149Z,2756.25
2019-06-10T09:46:36.100Z,2756.25
2019-06-10T09:47:36.017Z,2655.00
2019-06-10T09:48:35.963Z,2452.50
2019-06-10T09:49:35.890Z,2576.25
2019-06-10T09:50:35.821Z,2840.63
2019-06-10T09:51:35.774Z,2981.25
2019-06-10T09:52:35.680Z,3054.38
2019-06-10T09:53:42.722Z,2913.75
2019-06-10T09:54:35.555Z,3256.88
2019-06-10T09:55:35.491Z,3605.63
2019-06-10T09:56:35.436Z,3819.38
2019-06-10T09:57:35.353Z,3960.00
2019-06-10T09:58:35.287Z,3667.50
2019-06-10T09:59:35.240Z,3223.13
2019-06-10T10:00:35.159Z,3616.88
2019-06-10T10:01:35.105Z,3740.63
2019-06-10T10:02:35.036Z,3425.63
2019-06-10T10:03:34.958Z,4190.63
2019-06-10T10:04:37.359Z,4044.38
2019-06-10T10:05:34.839Z,3397.50
2019-06-10T10:06:34.776Z,3279.38
2019-06-10T10:07:34.706Z,3425.63
2019-06-10T10:08:34.641Z,2896.88
2019-06-10T10:09:37.054Z,2857.50
2019-06-10T10:10:34.505Z,3493.13
2019-06-10T10:11:34.450Z,3487.50
2019-06-10T10:12:34.375Z,3791.25
2019-06-10T10:13:35.336Z,3678.75
2019-06-10T10:14:34.239Z,3256.88
2019-06-10T10:15:34.651Z,2936.25
2019-06-10T10:16:34.159Z,2688.75
2019-06-10T10:17:34.035Z,2649.38
2019-06-10T10:18:33.981Z,2733.75
2019-06-10T10:19:34.415Z,3138.75
2019-06-10T10:20:34.156Z,2812.50
2019-06-10T10:21:33.789Z,3217.50
2019-06-10T10:22:34.209Z,3150.00
2019-06-10T10:23:50.148Z,3307.50
2019-06-10T10:24:34.194Z,2238.75
2019-06-10T10:25:33.499Z,3301.88
2019-06-10T10:26:33.457Z,3161.25
2019-06-10T10:27:33.371Z,3031.88
2019-06-10T10:28:33.655Z,3195.00
2019-06-10T10:29:33.263Z,3526.88
2019-06-10T10:30:33.357Z,3909.38
2019-06-10T10:31:33.121Z,4218.75
2019-06-10T10:32:33.502Z,3909.38
2019-06-10T10:33:33.390Z,3796.88
2019-06-10T10:34:33.396Z,4033.13
2019-06-10T10:35:32.831Z,4140.00
2019-06-10T10:36:33.623Z,3892.50
2019-06-10T10:37:32.846Z,3960.00
2019-06-10T10:38:34.462Z,3577.50
2019-06-10T10:39:32.828Z,3920.63
2019-06-10T10:40:32.775Z,4280.63
2019-06-10T10:41:32.457Z,4027.50
2019-06-10T10:42:42.645Z,4061.25
2019-06-10T10:43:36.564Z,4263.75
2019-06-10T10:44:32.445Z,4201.88
2019-06-10T10:45:32.185Z,4235.63
2019-06-10T10:46:32.689Z,4438.13
2019-06-10T10:47:33.537Z,4224.38
2019-06-10T10:48:33.524Z,4320.00
2019-06-10T10:49:32.583Z,4342.50
2019-06-10T10:50:34.164Z,4072.50
2019-06-10T10:51:32.638Z,3757.50
2019-06-10T10:52:33.084Z,3583.13
2019-06-10T10:53:32.810Z,3718.13
2019-06-10T10:54:35.981Z,3543.75
2019-06-10T10:55:32.917Z,3279.38
2019-06-10T10:56:33.398Z,3206.25
2019-06-10T10:57:33.052Z,3037.50
2019-06-10T10:58:33.083Z,2851.88
2019-06-10T10:59:33.235Z,2728.13
2019-06-10T11:00:37.092Z,2548.13
2019-06-10T11:01:33.121Z,2773.13
2019-06-10T11:02:32.197Z,3240.00
2019-06-10T11:03:33.334Z,3307.50
2019-06-10T11:04:32.831Z,3318.75
2019-06-10T11:05:33.206Z,3375.00
2019-06-10T11:06:32.276Z,3560.63
2019-06-10T11:07:33.363Z,3515.63
2019-06-10T11:08:33.219Z,3183.75
2019-06-10T11:09:32.860Z,3116.25
2019-06-10T11:10:33.021Z,3234.38
2019-06-10T11:11:33.119Z,3403.13
2019-06-10T11:12:33.079Z,3330.00
2019-06-10T11:13:32.697Z,3211.88
2019-06-10T11:14:30.298Z,3397.50
2019-06-10T11:15:32.804Z,3594.38
2019-06-10T11:16:32.884Z,3346.88
2019-06-10T11:17:30.106Z,3076.88
2019-06-10T11:18:30.040Z,3178.13
2019-06-10T11:19:32.134Z,2812.50
2019-06-10T11:20:29.911Z,2750.63
2019-06-10T11:21:29.831Z,3251.25
2019-06-10T11:22:29.785Z,3481.88
2019-06-10T11:23:33.383Z,3481.88
2019-06-10T11:24:37.739Z,3555.00
2019-06-10T11:25:29.578Z,3701.25
2019-06-10T11:26:32.142Z,3830.63
2019-06-10T11:27:30.040Z,3763.13
2019-06-10T11:28:29.379Z,3498.75
2019-06-10T11:29:29.315Z,3391.88
2019-06-10T11:30:29.244Z,3583.13
2019-06-10T11:31:29.178Z,3718.13
2019-06-10T11:32:29.126Z,3892.50
2019-06-10T11:33:29.047Z,3645.00
2019-06-10T11:34:29.078Z,3116.25
2019-06-10T11:35:28.926Z,2655.00
2019-06-10T11:36:28.847Z,2610.00
2019-06-10T11:37:28.801Z,2784.38
2019-06-10T11:38:28.725Z,3026.25
2019-06-10T11:39:28.656Z,2885.63
2019-06-10T11:40:28.610Z,3307.50
2019-06-10T11:41:28.520Z,3346.88
2019-06-10T11:42:28.474Z,3037.50
2019-06-10T11:43:28.387Z,2902.50
2019-06-10T11:44:28.327Z,3256.88
2019-06-10T11:45:29.131Z,4128.75
2019-06-10T11:46:28.193Z,4190.63
2019-06-10T11:47:28.169Z,3926.25
2019-06-10T11:48:28.064Z,4095.00
2019-06-10T11:49:27.997Z,3892.50
2019-06-10T11:50:27.930Z,4325.63
2019-06-10T11:51:27.873Z,4263.75
2019-06-10T11:52:27.799Z,4213.13
2019-06-10T11:53:28.805Z,4083.75
2019-06-10T11:54:27.685Z,4061.25
2019-06-10T11:55:27.604Z,4095.00
2019-06-10T11:56:27.547Z,4021.88
2019-06-10T11:57:27.471Z,3943.13
2019-06-10T11:58:27.434Z,3976.88
2019-06-10T11:59:27.344Z,4230.00
2019-06-10T12:00:27.297Z,4370.63
2019-06-10T12:01:27.224Z,4033.13
2019-06-10T12:02:27.732Z,3611.25
2019-06-10T12:03:27.103Z,3206.25
2019-06-10T12:04:27.032Z,3217.50
2019-06-10T12:05:26.977Z,3796.88
2019-06-10T12:06:26.896Z,3808.13
2019-06-10T12:07:26.839Z,3301.88
2019-06-10T12:08:26.789Z,3234.38
2019-06-10T12:09:26.730Z,3105.00
2019-06-10T12:10:26.657Z,3110.63
2019-06-10T12:11:26.580Z,2992.50
2019-06-10T12:12:26.522Z,2176.88
2019-06-10T12:13:26.469Z,2773.13
2019-06-10T12:14:27.193Z,2750.63
2019-06-10T12:15:26.337Z,2525.63
2019-06-10T12:17:15.243Z,3026.25
2019-06-10T12:17:41.834Z,3054.38
2019-06-10T12:18:26.152Z,3228.75
2019-06-10T12:19:26.096Z,3009.38
2019-06-10T12:20:28.476Z,2722.50
2019-06-10T12:21:25.951Z,3825.00
2019-06-10T12:22:25.888Z,4246.88
2019-06-10T12:23:25.830Z,4336.88
2019-06-10T12:24:25.758Z,4561.88
2019-06-10T12:25:35.685Z,4308.75
2019-06-10T12:26:25.640Z,4185.00
2019-06-10T12:27:25.574Z,3549.38
2019-06-10T12:28:25.523Z,3965.63
2019-06-10T12:29:25.438Z,3003.75
2019-06-10T12:30:25.400Z,3369.38
2019-06-10T12:31:25.318Z,3172.50
2019-06-10T12:32:25.265Z,2238.75